Time;durP1;ratioP1;P1;durP2;ratioP2;P2;SDS_P1;SDS_P2;PMS_P1;PMS_P2;Temp;Humidity;BMP_temperature;BMP_pressure;BME280_temperature;BME280_humidity;BME280_pressure;Samples;Min_cycle;Max_cycle;Signal;HPM_P1;HPM_P2
2022/03/18 00:00:25;;;;;;;3.38;3.05;;;5.10;99.90;;;;;;4907411;29;20092;-76
2022/03/18 00:02:53;;;;;;;4.43;3.47;;;5.10;99.90;;;;;;4909489;29;20482;-76
2022/03/18 00:05:19;;;;;;;8.15;3.08;;;5.10;99.90;;;;;;4923719;29;20048;-76
2022/03/18 00:07:46;;;;;;;2.53;2.33;;;5.10;99.90;;;;;;4909204;29;20088;-76
2022/03/18 00:10:14;;;;;;;2.30;2.10;;;5.00;99.90;;;;;;4908917;29;20048;-75
2022/03/18 00:12:40;;;;;;;2.75;2.55;;;5.00;99.90;;;;;;4910017;29;20044;-76
2022/03/18 00:15:08;;;;;;;4.72;3.05;;;5.00;99.90;;;;;;4907992;29;20135;-76
2022/03/18 00:17:34;;;;;;;7.43;1.67;;;5.00;99.90;;;;;;4906121;29;20063;-76
2022/03/18 00:20:00;;;;;;;13.05;2.05;;;4.90;99.90;;;;;;4909162;29;20044;-76
2022/03/18 00:22:25;;;;;;;3.22;2.83;;;4.90;99.90;;;;;;4908803;29;20048;-76
2022/03/18 00:24:51;;;;;;;2.57;2.43;;;4.90;99.90;;;;;;4909280;29;20048;-76
2022/03/18 00:27:17;;;;;;;2.63;2.42;;;4.90;99.90;;;;;;4908579;29;20051;-76
2022/03/18 00:29:43;;;;;;;7.40;4.03;;;4.80;99.90;;;;;;4908925;29;20403;-76
2022/03/18 00:32:09;;;;;;;2.60;2.40;;;4.90;99.90;;;;;;4908311;29;20426;-76
2022/03/18 00:34:35;;;;;;;2.23;2.13;;;4.80;99.90;;;;;;4923913;29;20044;-76
2022/03/18 00:37:00;;;;;;;7.57;2.33;;;4.80;99.90;;;;;;4912568;29;20047;-76
2022/03/18 00:39:26;;;;;;;5.07;3.70;;;4.90;99.90;;;;;;4927591;29;20044;-76
2022/03/18 00:41:51;;;;;;;5.67;3.00;;;4.90;99.90;;;;;;4927329;29;20044;-76
2022/03/18 00:44:17;;;;;;;7.10;3.43;;;5.00;99.90;;;;;;4923643;29;20051;-76
2022/03/18 00:46:43;;;;;;;4.33;4.00;;;5.00;99.90;;;;;;4907667;29;20499;-76
2022/03/18 00:52:03;;;;;;;2.97;2.70;;;5.00;99.90;;;;;;4927476;29;20087;-76
2022/03/18 00:54:33;;;;;;;9.10;2.97;;;5.00;99.90;;;;;;4926837;29;20047;-76
2022/03/18 00:56:59;;;;;;;5.17;3.73;;;5.00;99.90;;;;;;4927549;29;20161;-76
2022/03/18 00:59:24;;;;;;;2.43;2.23;;;5.00;99.90;;;;;;4926935;29;20102;-76
2022/03/18 01:01:53;;;;;;;5.68;4.22;;;5.00;99.90;;;;;;4926547;29;20376;-76
2022/03/18 01:04:22;;;;;;;13.73;4.70;;;5.00;99.90;;;;;;4926852;29;20513;-76
2022/03/18 01:06:55;;;;;;;7.77;3.20;;;5.10;99.90;;;;;;4908499;29;20580;-76
2022/03/18 01:09:21;;;;;;;5.47;2.93;;;5.00;99.90;;;;;;4908162;29;20064;-76
2022/03/18 01:11:49;;;;;;;1.83;1.67;;;5.10;99.90;;;;;;4922575;28;20491;-76
2022/03/18 01:14:15;;;;;;;4.07;2.17;;;5.10;99.90;;;;;;4907741;28;20555;-76
2022/03/18 01:16:41;;;;;;;7.77;2.23;;;5.10;99.90;;;;;;4907267;29;20074;-76
2022/03/18 01:19:08;;;;;;;1.90;1.80;;;5.10;99.90;;;;;;4908229;29;20056;-76
2022/03/18 01:21:34;;;;;;;3.97;1.77;;;5.10;99.90;;;;;;4908360;29;20044;-76
2022/03/18 01:24:00;;;;;;;2.83;2.57;;;5.10;99.90;;;;;;4906437;29;20119;-76
2022/03/18 01:26:25;;;;;;;2.20;2.03;;;5.10;99.90;;;;;;4906734;29;20456;-76
2022/03/18 01:28:52;;;;;;;3.63;2.90;;;5.10;99.90;;;;;;4907470;29;20050;-76
2022/03/18 01:31:18;;;;;;;3.33;3.00;;;5.10;99.90;;;;;;4906664;29;20075;-76
2022/03/18 01:33:44;;;;;;;7.20;2.17;;;5.20;99.90;;;;;;4922519;29;20087;-76
2022/03/18 01:36:11;;;;;;;2.30;2.10;;;5.10;99.90;;;;;;4919285;29;20099;-76
2022/03/18 01:38:37;;;;;;;3.17;2.20;;;5.20;99.90;;;;;;4926991;29;20044;-76
2022/03/18 01:41:03;;;;;;;1.60;1.50;;;5.10;99.90;;;;;;4925733;29;20055;-76
2022/03/18 01:43:35;;;;;;;4.83;3.30;;;5.10;99.90;;;;;;4926074;29;20047;-76
2022/03/18 01:46:01;;;;;;;3.58;2.55;;;5.10;99.90;;;;;;4916325;29;20071;-76
2022/03/18 01:48:26;;;;;;;19.87;3.70;;;5.10;99.90;;;;;;4925957;29;20082;-76
2022/03/18 01:50:52;;;;;;;6.07;2.67;;;5.10;99.90;;;;;;4926258;29;20040;-76
2022/03/18 01:53:17;;;;;;;1.57;1.47;;;5.10;99.90;;;;;;4924757;29;20051;-76
2022/03/18 01:55:43;;;;;;;21.97;2.00;;;5.10;99.90;;;;;;4926438;29;20079;-76
2022/03/18 01:58:09;;;;;;;1.90;1.80;;;5.10;99.90;;;;;;4925954;29;20543;-76
2022/03/18 02:00:34;;;;;;;2.37;1.27;;;5.10;99.90;;;;;;4925773;29;20414;-76
2022/03/18 02:03:00;;;;;;;2.97;1.40;;;5.10;99.90;;;;;;4932263;28;20518;-76
2022/03/18 02:05:25;;;;;;;2.77;2.43;;;5.10;99.90;;;;;;4907108;29;20824;-77
2022/03/18 02:07:51;;;;;;;2.07;1.97;;;5.10;99.90;;;;;;4907161;29;20099;-76
2022/03/18 02:10:17;;;;;;;3.23;2.13;;;5.10;99.90;;;;;;4906815;29;20048;-76
2022/03/18 02:12:43;;;;;;;11.82;3.55;;;5.10;99.90;;;;;;4921657;29;20047;-76
2022/03/18 02:15:09;;;;;;;1.83;1.73;;;5.10;99.90;;;;;;4906237;29;20161;-76
2022/03/18 02:17:35;;;;;;;8.70;2.17;;;5.10;99.90;;;;;;4907133;29;20044;-76
2022/03/18 02:20:01;;;;;;;3.23;2.43;;;5.10;99.90;;;;;;4907169;29;20744;-76
2022/03/18 02:22:28;;;;;;;4.90;2.80;;;5.10;99.90;;;;;;4906559;29;20080;-76
2022/03/18 02:24:55;;;;;;;2.13;1.65;;;5.10;99.90;;;;;;4921543;29;20082;-76
2022/03/18 02:27:21;;;;;;;5.65;1.80;;;5.10;99.90;;;;;;4905687;29;20106;-76
2022/03/18 02:29:47;;;;;;;2.90;2.70;;;5.10;99.90;;;;;;4906863;29;20044;-76
2022/03/18 02:32:13;;;;;;;7.47;2.60;;;5.10;99.90;;;;;;4905833;28;20046;-76
2022/03/18 02:34:40;;;;;;;2.90;2.10;;;5.10;99.90;;;;;;4906983;29;20048;-76
2022/03/18 02:37:07;;;;;;;6.70;2.87;;;5.10;99.90;;;;;;4906917;29;20119;-76
2022/03/18 02:39:33;;;;;;;2.85;2.15;;;5.10;99.90;;;;;;4904590;29;20504;-76
2022/03/18 02:41:59;;;;;;;2.38;1.60;;;5.10;99.90;;;;;;4907575;29;20047;-76
2022/03/18 02:44:25;;;;;;;3.37;2.73;;;5.10;99.90;;;;;;4906194;29;20091;-76
2022/03/18 02:46:51;;;;;;;7.13;3.15;;;5.10;99.90;;;;;;4905641;29;20415;-76
2022/03/18 02:49:16;;;;;;;2.17;1.87;;;5.20;99.90;;;;;;4906115;29;20075;-76
2022/03/18 02:51:42;;;;;;;2.67;2.27;;;5.20;99.90;;;;;;4905712;29;21015;-76
2022/03/18 02:54:09;;;;;;;4.37;2.20;;;5.20;99.90;;;;;;4906890;29;20044;-76
2022/03/18 02:56:35;;;;;;;4.17;2.10;;;5.20;99.90;;;;;;4906965;29;20071;-76
2022/03/18 02:59:03;;;;;;;2.27;2.07;;;5.20;99.90;;;;;;4906458;29;20054;-76
2022/03/18 03:01:32;;;;;;;6.85;3.13;;;5.20;99.90;;;;;;4910661;29;20107;-76
2022/03/18 03:03:59;;;;;;;6.13;3.40;;;5.20;99.90;;;;;;4924052;29;20044;-76
2022/03/18 03:09:09;;;;;;;2.00;1.77;;;5.20;99.90;;;;;;4924984;29;20107;-76
2022/03/18 03:11:34;;;;;;;3.87;2.00;;;5.20;99.90;;;;;;4925688;29;20047;-76
2022/03/18 03:14:01;;;;;;;2.17;1.97;;;5.20;99.90;;;;;;4924072;29;20052;-76
2022/03/18 03:16:27;;;;;;;16.50;2.63;;;5.20;99.90;;;;;;4924355;29;20039;-76
2022/03/18 03:18:52;;;;;;;2.50;2.35;;;5.30;99.90;;;;;;4923778;29;20043;-76
2022/03/18 03:21:18;;;;;;;2.92;2.60;;;5.30;99.90;;;;;;4925188;29;20725;-76
2022/03/18 03:23:44;;;;;;;6.65;2.38;;;5.30;99.90;;;;;;4924078;29;20055;-76
2022/03/18 03:26:10;;;;;;;2.50;2.40;;;5.30;99.90;;;;;;4924901;29;20285;-75
2022/03/18 03:28:37;;;;;;;2.08;1.95;;;5.30;99.90;;;;;;4924520;29;20052;-76
2022/03/18 03:31:03;;;;;;;2.30;2.20;;;5.30;99.90;;;;;;4921865;29;20574;-76
2022/03/18 03:33:29;;;;;;;2.80;2.57;;;5.30;99.90;;;;;;4905952;29;20048;-76
2022/03/18 03:35:55;;;;;;;2.45;2.13;;;5.30;99.90;;;;;;4906259;29;20053;-76
2022/03/18 03:38:21;;;;;;;2.67;2.47;;;5.30;99.90;;;;;;4905642;29;20135;-76
2022/03/18 03:40:47;;;;;;;4.43;2.70;;;5.30;99.90;;;;;;4906615;29;21087;-76
2022/03/18 03:43:13;;;;;;;3.70;3.45;;;5.30;99.90;;;;;;4905893;29;20048;-76
2022/03/18 03:45:39;;;;;;;4.25;2.85;;;5.30;99.90;;;;;;4903977;29;20087;-76
2022/03/18 03:48:06;;;;;;;10.82;3.08;;;5.30;99.90;;;;;;4905359;29;20094;-76
2022/03/18 03:50:32;;;;;;;18.20;3.30;;;5.30;99.90;;;;;;4906791;29;20455;-76
2022/03/18 03:52:58;;;;;;;2.08;1.98;;;5.30;99.90;;;;;;4924128;29;20044;-76
2022/03/18 03:55:23;;;;;;;5.97;2.67;;;5.30;99.90;;;;;;4909295;29;20448;-76
2022/03/18 03:57:49;;;;;;;5.63;2.45;;;5.30;99.90;;;;;;4909325;29;20646;-77
2022/03/18 04:00:15;;;;;;;2.07;1.97;;;5.30;99.90;;;;;;4924917;29;20573;-76
2022/03/18 04:02:43;;;;;;;10.85;3.28;;;5.30;99.90;;;;;;4928362;29;20079;-76
2022/03/18 04:05:10;;;;;;;4.40;4.03;;;5.40;99.90;;;;;;4926609;29;20048;-76
2022/03/18 04:07:37;;;;;;;4.85;1.73;;;5.40;99.90;;;;;;4928632;29;20051;-76
2022/03/18 04:10:07;;;;;;;4.93;3.67;;;5.40;99.90;;;;;;4928184;29;20047;-76
2022/03/18 04:12:33;;;;;;;4.07;2.22;;;5.40;99.90;;;;;;4926763;29;20055;-76
2022/03/18 04:15:08;;;;;;;2.37;2.00;;;5.40;99.90;;;;;;4927344;29;20530;-76
2022/03/18 04:17:44;;;;;;;2.28;2.17;;;5.40;99.90;;;;;;4927151;29;20048;-76
2022/03/18 04:20:12;;;;;;;2.88;2.67;;;5.40;99.90;;;;;;4926418;29;20044;-76
2022/03/18 04:22:39;;;;;;;2.83;2.53;;;5.40;99.90;;;;;;4927353;29;20481;-76
2022/03/18 04:25:05;;;;;;;3.40;3.13;;;5.40;99.90;;;;;;4928904;29;20059;-76
2022/03/18 04:27:31;;;;;;;2.72;2.53;;;5.40;99.90;;;;;;4927178;29;20044;-76
2022/03/18 04:29:57;;;;;;;9.80;3.30;;;5.30;99.90;;;;;;4925554;29;20048;-76
2022/03/18 04:32:22;;;;;;;2.88;2.42;;;5.40;99.90;;;;;;4927587;29;20051;-76
2022/03/18 04:34:48;;;;;;;5.40;3.70;;;5.30;99.90;;;;;;4927554;29;20043;-76
2022/03/18 04:37:14;;;;;;;2.97;2.77;;;5.30;99.90;;;;;;4927490;29;20123;-76
2022/03/18 04:39:39;;;;;;;2.83;2.63;;;5.30;99.90;;;;;;4927682;29;20062;-76
2022/03/18 04:42:05;;;;;;;3.00;2.53;;;5.20;99.90;;;;;;4910648;29;20091;-76
2022/03/18 04:44:30;;;;;;;4.03;3.40;;;5.20;99.90;;;;;;4922448;29;20055;-75
2022/03/18 04:46:56;;;;;;;2.17;2.07;;;5.20;99.90;;;;;;4908780;29;20056;-76
2022/03/18 04:49:21;;;;;;;3.55;3.25;;;5.10;99.90;;;;;;4907984;29;21004;-76
2022/03/18 04:51:47;;;;;;;6.40;3.63;;;5.10;99.90;;;;;;4907287;29;20054;-76
2022/03/18 04:54:12;;;;;;;6.07;3.47;;;5.00;99.90;;;;;;4908143;29;20040;-76
2022/03/18 04:59:22;;;;;;;2.90;2.70;;;5.00;99.90;;;;;;4921080;29;20062;-76
2022/03/18 05:01:48;;;;;;;3.00;2.70;;;5.00;99.90;;;;;;4925909;29;20430;-76
2022/03/18 05:04:13;;;;;;;2.87;2.63;;;5.00;99.90;;;;;;4926641;29;20091;-76
2022/03/18 05:06:39;;;;;;;3.63;3.10;;;5.00;99.90;;;;;;4927352;29;20051;-76
2022/03/18 05:09:05;;;;;;;16.93;2.83;;;4.90;99.90;;;;;;4927378;29;20064;-76
2022/03/18 05:11:31;;;;;;;3.03;2.83;;;4.90;99.90;;;;;;4927304;29;20388;-76
2022/03/18 05:13:58;;;;;;;7.90;4.43;;;4.90;99.90;;;;;;4927042;29;20050;-76
2022/03/18 05:16:27;;;;;;;3.93;3.63;;;4.90;99.90;;;;;;4925945;29;20114;-76
2022/03/18 05:18:53;;;;;;;2.87;2.67;;;4.80;99.90;;;;;;4925547;29;20060;-76
2022/03/18 05:21:19;;;;;;;3.67;3.37;;;4.80;99.90;;;;;;4926685;29;20044;-76
2022/03/18 05:23:46;;;;;;;4.07;3.38;;;4.80;99.90;;;;;;4925797;29;20090;-76
2022/03/18 05:26:12;;;;;;;7.03;3.33;;;4.80;99.90;;;;;;4926280;29;20056;-76
2022/03/18 05:28:38;;;;;;;3.47;3.27;;;4.80;99.90;;;;;;4919899;29;20044;-77
2022/03/18 05:31:03;;;;;;;2.37;2.27;;;4.70;99.90;;;;;;4905576;29;20104;-76
2022/03/18 05:33:29;;;;;;;4.03;3.53;;;4.70;99.90;;;;;;4907188;29;20067;-76
2022/03/18 05:35:54;;;;;;;5.90;3.60;;;4.70;99.90;;;;;;4907886;29;20059;-76
2022/03/18 05:38:20;;;;;;;3.63;3.33;;;4.70;99.90;;;;;;4907388;29;20048;-76
2022/03/18 05:40:45;;;;;;;4.30;3.90;;;4.60;99.90;;;;;;4906910;29;20080;-77
2022/03/18 05:43:11;;;;;;;4.20;3.87;;;4.60;99.90;;;;;;4906403;29;20056;-76
2022/03/18 05:45:37;;;;;;;4.17;3.27;;;4.60;99.90;;;;;;4906378;29;20523;-76
2022/03/18 05:48:06;;;;;;;2.93;2.53;;;4.60;99.90;;;;;;4907933;29;20096;-75
2022/03/18 05:50:32;;;;;;;4.63;4.30;;;4.50;99.90;;;;;;4906654;29;20127;-75
2022/03/18 05:52:57;;;;;;;7.20;3.90;;;4.50;99.90;;;;;;4907434;29;20052;-75
2022/03/18 05:55:24;;;;;;;20.37;5.07;;;4.50;99.90;;;;;;4906934;29;20135;-75
2022/03/18 05:57:52;;;;;;;10.03;4.37;;;4.50;99.90;;;;;;4908093;29;20048;-75
2022/03/18 06:00:18;;;;;;;6.80;4.80;;;4.50;99.90;;;;;;4920656;29;20060;-75
2022/03/18 06:02:45;;;;;;;2.70;2.50;;;4.50;99.90;;;;;;4907086;29;20071;-74
2022/03/18 06:05:10;;;;;;;5.80;5.30;;;4.50;99.90;;;;;;4922204;29;20063;-75
2022/03/18 06:07:37;;;;;;;5.27;4.80;;;4.50;99.90;;;;;;4926524;29;20048;-76
2022/03/18 06:12:47;;;;;;;6.60;3.97;;;4.50;99.90;;;;;;4904629;29;20115;-79
2022/03/18 06:15:12;;;;;;;6.53;3.80;;;4.50;99.90;;;;;;4906375;29;20040;-75
2022/03/18 06:17:38;;;;;;;3.47;3.27;;;4.40;99.90;;;;;;4911018;29;20052;-76
2022/03/18 06:20:04;;;;;;;8.73;4.23;;;4.40;99.90;;;;;;4906102;29;20036;-79
2022/03/18 06:22:30;;;;;;;5.17;3.47;;;4.40;99.90;;;;;;4904605;29;20084;-77
2022/03/18 06:24:55;;;;;;;3.23;2.93;;;4.40;99.90;;;;;;4905008;29;20072;-78
2022/03/18 06:27:21;;;;;;;8.20;4.10;;;4.50;99.90;;;;;;4907401;29;20040;-78
2022/03/18 06:29:46;;;;;;;5.80;4.00;;;4.50;99.90;;;;;;4917269;29;20102;-76
2022/03/18 06:32:12;;;;;;;3.00;2.80;;;4.50;99.90;;;;;;4919958;29;20103;-76
2022/03/18 06:34:38;;;;;;;3.93;3.53;;;4.50;99.90;;;;;;4905993;29;20087;-76
2022/03/18 06:37:04;;;;;;;7.07;6.47;;;4.50;99.90;;;;;;4905365;29;20060;-76
2022/03/18 06:39:30;;;;;;;6.47;5.77;;;4.50;99.90;;;;;;4908716;29;20052;-77
2022/03/18 06:41:56;;;;;;;11.37;4.27;;;4.50;99.90;;;;;;4902432;29;20107;-75
2022/03/18 06:44:22;;;;;;;4.30;3.80;;;4.50;99.90;;;;;;4904578;29;20047;-76
2022/03/18 06:46:48;;;;;;;4.33;3.30;;;4.50;99.90;;;;;;4911444;29;20043;-76
2022/03/18 06:49:14;;;;;;;5.23;4.80;;;4.60;99.90;;;;;;4907042;29;20047;-76
2022/03/18 06:51:40;;;;;;;4.43;4.03;;;4.60;99.90;;;;;;4907519;29;20422;-76
2022/03/18 06:54:06;;;;;;;13.97;4.83;;;4.60;99.90;;;;;;4899886;29;20047;-75
2022/03/18 06:56:32;;;;;;;8.17;6.00;;;4.60;99.90;;;;;;4904432;29;20044;-72
2022/03/18 06:58:58;;;;;;;6.03;5.47;;;4.60;99.90;;;;;;4920617;29;20044;-73
2022/03/18 07:01:25;;;;;;;6.97;5.67;;;4.70;99.90;;;;;;4904842;29;20043;-72
2022/03/18 07:03:51;;;;;;;10.43;6.87;;;4.70;99.90;;;;;;4901864;29;20735;-72
2022/03/18 07:06:17;;;;;;;5.13;4.00;;;4.70;99.90;;;;;;4903864;29;20044;-72
2022/03/18 07:08:42;;;;;;;8.07;5.37;;;4.80;99.90;;;;;;4904647;29;20511;-73
2022/03/18 07:11:10;;;;;;;9.30;4.93;;;4.80;99.90;;;;;;4903646;29;20367;-73
2022/03/18 07:13:36;;;;;;;6.60;4.33;;;4.80;99.90;;;;;;4906123;29;20043;-72
2022/03/18 07:19:05;;;;;;;6.73;4.07;;;4.90;99.90;;;;;;4898861;29;20058;-72
2022/03/18 07:21:33;;;;;;;3.57;3.20;;;4.90;99.90;;;;;;4910162;29;20047;-72
2022/03/18 07:23:58;;;;;;;4.27;3.67;;;5.00;99.90;;;;;;4912149;29;20059;-73
2022/03/18 07:26:24;;;;;;;7.53;5.10;;;5.10;99.90;;;;;;4904507;29;20044;-73
2022/03/18 07:28:49;;;;;;;4.63;3.80;;;5.10;99.90;;;;;;4903310;29;20044;-74
2022/03/18 07:31:15;;;;;;;4.10;3.80;;;5.10;99.90;;;;;;4901216;29;20048;-74
2022/03/18 07:33:40;;;;;;;4.10;3.80;;;5.20;99.90;;;;;;4909182;29;20048;-74
2022/03/18 07:36:06;;;;;;;7.35;4.72;;;5.20;99.90;;;;;;4908782;29;20044;-74
2022/03/18 07:38:32;;;;;;;6.90;4.27;;;5.30;99.90;;;;;;4909009;29;20071;-74
2022/03/18 07:40:57;;;;;;;4.13;3.77;;;5.40;99.90;;;;;;4907060;29;20071;-74
2022/03/18 07:43:23;;;;;;;3.60;3.23;;;5.50;99.90;;;;;;4909163;29;20050;-74
2022/03/18 07:45:48;;;;;;;5.20;2.80;;;5.60;99.90;;;;;;4911183;29;20138;-74
2022/03/18 07:48:14;;;;;;;5.38;3.65;;;5.70;99.90;;;;;;4907744;29;20059;-75
2022/03/18 07:50:39;;;;;;;8.18;3.42;;;5.80;99.90;;;;;;4905621;29;20491;-75
2022/03/18 07:53:07;;;;;;;3.15;2.92;;;6.00;99.90;;;;;;4909015;29;20044;-74
2022/03/18 07:55:36;;;;;;;3.80;2.97;;;6.20;99.90;;;;;;4901681;29;20388;-74
2022/03/18 07:58:02;;;;;;;2.83;2.63;;;6.20;99.90;;;;;;4906849;29;20048;-74
2022/03/18 08:00:27;;;;;;;3.42;2.85;;;6.40;99.90;;;;;;4907666;29;20036;-74
2022/03/18 08:02:54;;;;;;;3.33;2.28;;;6.50;99.90;;;;;;4903490;29;20060;-74
2022/03/18 08:05:21;;;;;;;2.35;2.15;;;6.60;99.90;;;;;;4906580;29;20048;-74
2022/03/18 08:07:46;;;;;;;2.70;2.17;;;6.70;99.90;;;;;;4907103;29;20055;-74
2022/03/18 08:10:13;;;;;;;3.70;2.47;;;6.80;99.90;;;;;;4908872;29;20055;-74
2022/03/18 08:12:40;;;;;;;8.00;3.97;;;6.90;99.90;;;;;;4908394;29;20510;-75
2022/03/18 08:15:13;;;;;;;3.17;2.88;;;7.00;99.90;;;;;;4903783;29;20130;-74
2022/03/18 08:17:39;;;;;;;6.65;3.60;;;7.00;99.90;;;;;;4907414;29;20534;-74
2022/03/18 08:20:10;;;;;;;6.78;2.97;;;7.10;99.90;;;;;;4926128;29;20044;-74
2022/03/18 08:22:36;;;;;;;2.53;2.38;;;7.10;99.90;;;;;;4908632;29;20394;-74
2022/03/18 08:25:03;;;;;;;3.45;1.98;;;7.20;99.90;;;;;;4909014;29;20044;-74
2022/03/18 08:27:28;;;;;;;2.15;1.67;;;7.30;99.90;;;;;;4905022;29;20443;-74
2022/03/18 08:29:59;;;;;;;3.95;3.65;;;7.30;99.90;;;;;;4906724;29;20048;-74
2022/03/18 08:32:27;;;;;;;1.95;1.83;;;7.40;99.90;;;;;;4907040;29;20071;-74
2022/03/18 08:34:53;;;;;;;2.47;2.38;;;7.40;99.90;;;;;;4906663;29;20059;-74
2022/03/18 08:40:04;;;;;;;4.68;3.10;;;7.60;99.90;;;;;;4907708;29;20421;-76
2022/03/18 08:42:30;;;;;;;2.50;2.05;;;7.70;99.90;;;;;;4907058;29;20063;-76
2022/03/18 08:44:56;;;;;;;8.18;2.53;;;7.70;99.90;;;;;;4905178;29;20048;-76
2022/03/18 08:47:23;;;;;;;5.35;3.05;;;7.90;99.90;;;;;;4907322;29;20043;-77
2022/03/18 08:49:49;;;;;;;4.57;3.35;;;7.90;99.90;;;;;;4922103;29;20452;-78
2022/03/18 08:52:14;;;;;;;2.92;2.72;;;7.90;99.90;;;;;;4903795;29;20048;-78
2022/03/18 08:54:40;;;;;;;7.65;3.00;;;8.00;99.90;;;;;;4904421;29;20143;-78
2022/03/18 08:57:05;;;;;;;2.80;2.60;;;8.00;99.90;;;;;;4908371;29;20435;-79
2022/03/18 08:59:31;;;;;;;20.55;2.70;;;8.00;99.90;;;;;;4904800;29;20526;-77
2022/03/18 09:01:56;;;;;;;5.20;3.15;;;8.00;99.90;;;;;;4907426;29;20058;-77
2022/03/18 09:04:22;;;;;;;3.97;2.63;;;8.00;99.90;;;;;;4917453;29;20345;-77
2022/03/18 09:06:47;;;;;;;4.25;2.28;;;8.00;99.90;;;;;;4920582;29;20119;-78
2022/03/18 09:09:13;;;;;;;2.22;1.90;;;8.10;99.90;;;;;;4906198;29;20055;-78
2022/03/18 09:11:38;;;;;;;3.00;1.90;;;8.10;99.90;;;;;;4906561;29;20550;-77
2022/03/18 09:14:04;;;;;;;1.88;1.77;;;8.20;99.90;;;;;;4906606;29;20044;-76
2022/03/18 09:16:30;;;;;;;1.95;1.70;;;8.20;99.90;;;;;;4902641;29;20046;-77
2022/03/18 09:18:55;;;;;;;1.83;1.73;;;8.30;99.90;;;;;;4906841;29;20044;-77
2022/03/18 09:21:21;;;;;;;1.33;1.33;;;8.30;99.90;;;;;;4906725;29;20112;-76
2022/03/18 09:23:46;;;;;;;7.10;3.50;;;8.30;99.90;;;;;;4906658;29;20079;-76
2022/03/18 09:26:12;;;;;;;11.68;2.38;;;8.30;99.90;;;;;;4906489;29;20170;-77
2022/03/18 09:28:39;;;;;;;9.23;3.05;;;8.30;99.90;;;;;;4903073;29;20052;-78
2022/03/18 09:31:04;;;;;;;3.78;2.60;;;8.40;99.90;;;;;;4907579;29;20039;-76
2022/03/18 09:33:30;;;;;;;2.78;2.58;;;8.50;99.90;;;;;;4906710;29;20557;-77
2022/03/18 09:35:55;;;;;;;2.67;2.47;;;8.50;99.90;;;;;;4906575;29;20588;-76
2022/03/18 09:38:21;;;;;;;4.28;2.80;;;8.60;99.90;;;;;;4906234;29;20067;-73
2022/03/18 09:40:47;;;;;;;2.33;2.22;;;8.60;99.90;;;;;;4902802;29;20526;-73
2022/03/18 09:43:14;;;;;;;2.20;2.10;;;8.60;99.90;;;;;;4905872;29;20091;-74
2022/03/18 09:45:40;;;;;;;1.80;1.38;;;8.60;99.90;;;;;;4894822;29;20045;-74
2022/03/18 09:48:10;;;;;;;2.13;1.92;;;8.70;99.90;;;;;;4906497;29;20079;-77
2022/03/18 09:50:37;;;;;;;8.00;2.85;;;8.70;99.90;;;;;;4903599;29;20228;-75
2022/03/18 09:53:04;;;;;;;5.30;2.45;;;8.80;99.90;;;;;;4904835;29;20088;-76
2022/03/18 09:55:30;;;;;;;2.97;2.67;;;8.80;99.90;;;;;;4905932;29;20055;-76
2022/03/18 09:57:56;;;;;;;3.63;2.88;;;8.90;99.90;;;;;;4906789;28;20048;-76
2022/03/18 10:00:22;;;;;;;8.80;2.38;;;9.00;99.90;;;;;;4905151;29;20048;-76
2022/03/18 10:03:10;;;;;;;2.85;2.67;;;9.10;99.90;;;;;;4903233;29;20140;-76
2022/03/18 10:05:49;;;;;;;8.27;3.20;;;9.10;99.90;;;;;;4906727;29;20215;-76
2022/03/18 10:08:21;;;;;;;1.05;1.05;;;9.10;99.90;;;;;;4904335;29;20294;-76
2022/03/18 10:10:48;;;;;;;7.13;2.10;;;9.10;99.90;;;;;;4906105;29;20059;-76
2022/03/18 10:13:15;;;;;;;16.67;3.17;;;9.10;99.90;;;;;;4905716;29;20414;-76
2022/03/18 10:15:41;;;;;;;2.15;1.95;;;9.20;99.90;;;;;;4902245;29;20076;-76
2022/03/18 10:18:11;;;;;;;1.75;1.65;;;9.20;99.90;;;;;;4905439;29;20296;-76
2022/03/18 10:20:39;;;;;;;2.25;2.05;;;9.30;99.90;;;;;;4906484;29;20051;-75
2022/03/18 10:23:17;;;;;;;8.48;2.63;;;9.30;99.90;;;;;;4906281;29;20040;-76
2022/03/18 10:25:51;;;;;;;3.20;3.00;;;9.30;99.90;;;;;;4905414;29;20507;-76
2022/03/18 10:28:44;;;;;;;7.82;2.40;;;9.30;99.90;;;;;;4901735;29;20040;-75
2022/03/18 10:31:21;;;;;;;1.58;1.48;;;9.30;99.90;;;;;;4905472;29;20043;-76
2022/03/18 10:39:22;;;;;;;7.45;2.38;;;9.30;99.90;;;;;;4902214;29;20546;-76
2022/03/18 10:41:48;;;;;;;2.22;1.83;;;9.30;99.90;;;;;;4904273;29;20040;-76
2022/03/18 10:44:16;;;;;;;4.85;2.72;;;9.40;99.90;;;;;;4902145;29;20127;-76
2022/03/18 10:46:42;;;;;;;4.68;1.60;;;9.40;99.90;;;;;;4886981;29;20397;-76
2022/03/18 10:49:10;;;;;;;6.03;2.95;;;9.40;99.90;;;;;;4897598;29;20044;-76
2022/03/18 10:51:37;;;;;;;4.95;2.15;;;9.50;99.90;;;;;;4900744;29;20067;-75
2022/03/18 10:54:04;;;;;;;2.83;1.67;;;9.50;99.90;;;;;;4907169;29;20072;-76
2022/03/18 10:56:57;;;;;;;2.13;1.98;;;9.50;99.90;;;;;;4905323;29;20453;-75
2022/03/18 10:59:26;;;;;;;3.05;2.88;;;9.50;99.90;;;;;;4903995;29;20060;-76
2022/03/18 11:01:52;;;;;;;3.00;2.20;;;9.50;99.90;;;;;;4915957;29;20148;-76
2022/03/18 11:04:18;;;;;;;2.72;2.50;;;9.50;99.90;;;;;;4903065;29;20066;-76
2022/03/18 11:07:29;;;;;;;2.00;1.67;;;9.50;99.90;;;;;;4921857;29;20036;-76
2022/03/18 11:11:07;;;;;;;12.57;1.90;;;9.60;99.90;;;;;;4905091;29;20135;-76
2022/03/18 11:12:26;;;;;;;2.28;2.03;;;9.70;99.90;;;;;;4913532;29;20088;-75
2022/03/18 11:14:59;;;;;;;5.82;2.97;;;9.80;99.90;;;;;;4911010;29;20131;-75
2022/03/18 11:17:25;;;;;;;7.00;3.08;;;9.90;99.90;;;;;;4903418;29;20048;-76
2022/03/18 11:19:54;;;;;;;1.38;1.27;;;9.90;99.90;;;;;;4903008;29;20051;-76
2022/03/18 11:22:21;;;;;;;1.88;1.73;;;9.90;99.90;;;;;;4900278;29;20229;-75
2022/03/18 11:24:48;;;;;;;1.48;1.38;;;9.90;99.90;;;;;;4895115;29;20051;-75
2022/03/18 11:27:14;;;;;;;4.95;2.33;;;9.90;99.90;;;;;;4899758;29;20123;-74
2022/03/18 11:29:40;;;;;;;4.78;2.17;;;9.90;99.90;;;;;;4905596;29;20152;-77
2022/03/18 11:32:17;;;;;;;6.53;2.83;;;9.90;99.90;;;;;;4905918;29;20047;-76
2022/03/18 11:34:58;;;;;;;12.57;2.53;;;9.90;99.90;;;;;;4920458;29;20060;-76
2022/03/18 11:37:29;;;;;;;1.85;1.60;;;9.90;99.90;;;;;;4900953;29;20095;-76
2022/03/18 11:40:19;;;;;;;2.55;2.15;;;9.90;99.90;;;;;;4904835;29;20044;-76
2022/03/18 11:42:45;;;;;;;7.68;2.05;;;10.00;99.90;;;;;;4903902;29;20048;-76
2022/03/18 11:45:30;;;;;;;1.85;1.73;;;10.00;99.90;;;;;;4904515;29;20052;-76
2022/03/18 11:47:55;;;;;;;2.38;1.80;;;10.00;99.90;;;;;;4900279;29;20230;-76
2022/03/18 11:50:41;;;;;;;4.38;2.88;;;10.00;99.90;;;;;;4900267;29;20453;-76
2022/03/18 11:53:10;;;;;;;8.68;1.77;;;10.10;99.90;;;;;;4902762;29;20037;-76
2022/03/18 11:55:36;;;;;;;3.92;3.03;;;10.10;99.90;;;;;;4904847;29;20063;-75
2022/03/18 11:58:25;;;;;;;6.30;2.35;;;10.10;99.90;;;;;;4904360;29;20499;-75
2022/03/18 12:00:51;;;;;;;3.65;2.22;;;10.20;99.90;;;;;;4901368;29;20076;-75
2022/03/18 12:03:21;;;;;;;5.63;2.13;;;10.20;99.90;;;;;;4904754;29;20048;-76
2022/03/18 12:05:55;;;;;;;16.48;2.50;;;10.20;99.90;;;;;;4905952;29;20051;-76
2022/03/18 12:08:50;;;;;;;3.10;1.75;;;10.30;99.90;;;;;;4905502;28;20134;-77
2022/03/18 12:11:36;;;;;;;14.40;2.38;;;10.40;99.90;;;;;;4886655;29;20514;-76
2022/03/18 12:14:03;;;;;;;2.20;1.73;;;10.40;99.90;;;;;;4906571;29;20044;-76
2022/03/18 12:16:30;;;;;;;1.75;1.65;;;10.50;99.90;;;;;;4908383;29;20043;-76
2022/03/18 12:18:59;;;;;;;1.90;1.80;;;10.50;99.90;;;;;;4909080;28;20092;-77
2022/03/18 12:21:36;;;;;;;4.00;2.45;;;10.60;99.90;;;;;;4908385;29;20106;-77
2022/03/18 12:24:03;;;;;;;3.63;2.83;;;10.70;99.90;;;;;;4903660;29;20091;-77
2022/03/18 12:26:29;;;;;;;5.43;2.17;;;10.70;99.90;;;;;;4907519;29;20391;-76
2022/03/18 12:28:54;;;;;;;5.15;2.45;;;10.80;99.90;;;;;;4907652;29;20052;-77
2022/03/18 12:31:21;;;;;;;1.83;1.73;;;10.70;99.90;;;;;;4905137;29;20044;-79
2022/03/18 12:33:55;;;;;;;4.55;2.25;;;10.80;99.90;;;;;;4908532;29;20526;-77
2022/03/18 12:36:25;;;;;;;2.30;2.15;;;10.80;99.90;;;;;;4903434;29;20055;-77
2022/03/18 12:39:04;;;;;;;6.50;2.45;;;10.90;99.90;;;;;;4906816;29;20087;-77
2022/03/18 12:41:29;;;;;;;3.38;1.73;;;10.90;99.90;;;;;;4889642;29;20048;-77
2022/03/18 12:43:55;;;;;;;5.13;1.27;;;11.00;99.90;;;;;;4903631;29;20047;-77
2022/03/18 12:46:21;;;;;;;5.35;1.98;;;11.00;99.90;;;;;;4904062;29;20047;-77
2022/03/18 12:48:47;;;;;;;2.22;2.10;;;11.00;99.90;;;;;;4906938;29;20062;-77
2022/03/18 12:51:13;;;;;;;12.32;2.40;;;11.10;99.90;;;;;;4905737;29;20751;-78
2022/03/18 12:53:44;;;;;;;3.72;1.73;;;11.10;99.90;;;;;;4902641;29;20111;-77
2022/03/18 12:56:15;;;;;;;4.43;2.17;;;11.10;99.90;;;;;;4921782;29;20277;-79
2022/03/18 12:58:41;;;;;;;1.73;1.60;;;11.10;99.90;;;;;;4901270;29;20098;-80
2022/03/18 13:01:11;;;;;;;1.98;1.80;;;11.10;99.90;;;;;;4906778;29;20524;-80
2022/03/18 13:03:44;;;;;;;4.57;2.40;;;11.10;99.90;;;;;;4915491;29;20052;-80
2022/03/18 13:06:17;;;;;;;10.05;1.75;;;11.10;99.90;;;;;;4921745;29;20399;-77
2022/03/18 13:08:43;;;;;;;6.53;1.65;;;11.10;99.90;;;;;;4906856;29;20099;-80
2022/03/18 13:11:09;;;;;;;2.45;1.80;;;11.10;99.90;;;;;;4903596;29;20048;-79
2022/03/18 13:13:42;;;;;;;8.75;2.22;;;11.00;99.90;;;;;;4905385;29;20559;-76
2022/03/18 13:16:09;;;;;;;3.47;1.63;;;11.00;99.90;;;;;;4905590;29;20119;-77
2022/03/18 13:18:36;;;;;;;1.95;1.23;;;11.00;99.90;;;;;;4900295;29;20788;-75